Latest Coastal Weather Observations for Coles Point

IDS60701

Issued at 7:25 am CDT Friday 21 November 2014 (issued every 10 minutes, with the page automatically refreshed every 10 minutes)

About coastal observations | Map of coastal stations | Coastal observations for SA | Marine services | Other Formats
Station Details ID: 018191 Name: COLES POINT Lat: -34.37 Lon: 135.37 Height: 28.0 m
Data from the previous 72 hours. | See also: Recent months at Coles Point
Date/Time
CDT
Temp

°C
Wind Pressure Rain
since 9am
mm
Weather Cloud Vis
km
Sea
Height
m
Swell
Dir
 
Speed
knots
Gust
knots
hPa Trend Height
m
Period
s
Dir
21/07:00am 11.0 NE 5 6 1012.5 - 0.2 - - - - - - -
21/06:30am 10.1 NE 8 9 1012.0 - 0.2 - - - - - - -
21/06:00am 10.2 NE 8 8 1011.8 - 0.2 - - - - - - -
21/05:30am 10.4 NNE 8 9 1011.8 - 0.2 - - - - - - -
21/05:00am 10.5 NNE 5 8 1011.8 - 0.2 - - - - - - -
21/04:30am 9.8 ENE 2 5 1011.9 - 0.2 - - - - - - -
21/04:00am 10.5 NNE 2 4 1012.1 - 0.2 - - - - - - -
21/03:30am 12.2 W 1 2 1011.9 - 0.2 - - - - - - -
21/03:00am 11.2 W 0 0 1012.4 - 0.2 - - - - - - -
21/02:30am 11.9 W 0 1 1012.6 - 0.2 - - - - - - -
21/02:00am 12.2 W 2 2 1012.9 - 0.2 - - - - - - -
21/01:30am 12.5 W 2 3 1013.4 - 0.2 - - - - - - -
21/01:00am 13.4 W 4 5 1013.7 - 0.2 - - - - - - -
21/12:30am 14.8 SW 4 6 1013.6 - 0.2 - - - - - - -
21/12:00am 14.7 WSW 5 8 1013.8 - 0.2 - - - - - - -
 
Date/Time
CDT
Temp

°C
Wind Pressure Rain
since 9am
mm
Weather Cloud Vis
km
Sea
Height
m
Swell
Dir
 
Speed
knots
Gust
knots
hPa Trend Height
m
Period
s
Dir
20/11:30pm 14.9 SW 8 11 1013.7 - 0.2 - - - - - - -
20/11:00pm 14.6 SW 6 8 1013.3 - 0.2 - - - - - - -
20/10:30pm 15.0 WSW 7 9 1013.2 - 0.2 - - - - - - -
20/10:00pm 15.7 SW 8 10 1013.0 - 0.2 - - - - - - -
20/09:30pm 16.0 SSW 8 10 1012.7 - 0.2 - - - - - - -
20/09:00pm 16.2 SSW 7 9 1012.6 - 0.2 - - - - - - -
20/08:30pm 16.3 SSW 6 9 1012.3 - 0.2 - - - - - - -
20/08:00pm 16.4 SSW 8 11 1011.9 - 0.2 - - - - - - -
20/07:30pm 17.0 SW 10 13 1011.6 - 0.2 - - - - - - -
20/07:00pm 17.2 SW 10 13 1011.3 - 0.2 - - - - - - -
20/06:30pm 17.4 SW 10 12 1010.9 - 0.2 - - - - - - -
20/06:00pm 17.3 SW 10 14 1010.8 - 0.2 - - - - - - -
20/05:30pm 17.1 SW 11 15 1010.4 - 0.2 - - - - - - -
20/05:00pm 17.7 SW 10 14 1010.6 - 0.2 - - - - - - -
20/04:30pm 18.0 SW 13 16 1010.2 - 0.2 - - - - - - -
20/04:00pm 18.1 WSW 12 16 1010.4 - 0.2 - - - - - - -
20/03:30pm 19.0 W 11 15 1010.5 - 0.2 - - - - - - -
20/03:00pm 18.9 W 12 16 1010.1 - 0.2 - - - - - - -
20/02:30pm 20.3 W 13 17 1010.1 - 0.2 - - - - - - -
20/02:00pm 19.9 W 13 17 1010.2 - 0.2 - - - - - - -
20/01:30pm 20.1 W 10 12 1010.0 - 0.0 - - - - - - -
20/01:00pm 19.8 WSW 10 13 1010.1 - 0.0 - - - - - - -
20/12:30pm 19.5 WSW 11 14 1010.1 - 0.0 - - - - - - -
20/12:00pm 18.2 W 12 16 1010.6 - 0.0 - - - - - - -
20/11:30am 18.6 W 12 17 1010.4 - 0.0 - - - - - - -
20/11:00am 18.9 WNW 13 18 1009.8 - 0.0 - - - - - - -
20/10:30am 18.5 WNW 11 16 1009.5 - 0.0 - - - - - - -
20/10:00am 18.1 WNW 12 15 1009.3 - 0.0 - - - - - - -
20/09:30am 18.1 NW 8 12 1009.1 - 0.0 - - - - - - -
20/09:00am 17.9 WNW 10 14 1009.1 - 2.6 Rain - - - - - -
20/08:30am 18.2 NW 9 13 1008.7 - 2.4 - - - - - - -
20/08:00am 18.6 NW 9 13 1008.3 - 2.0 - - - - - - -
20/07:30am 18.7 NW 7 10 1008.0 - 1.8 - - - - - - -
20/07:00am 19.0 NW 8 10 1007.8 - 1.8 - - - - - - -
20/06:30am 19.2 NW 11 15 1007.4 - 1.8 - - - - - - -
20/06:00am 19.1 NNW 10 14 1007.3 - 1.8 - - - - - - -
20/05:30am 19.5 NNW 12 15 1007.3 - 1.8 - - - - - - -
20/05:00am 19.6 NNW 10 13 1007.2 - 1.8 - - - - - - -
20/04:30am 19.6 NNW 6 10 1007.0 - 1.8 - - - - - - -
20/04:00am 20.6 NW 8 11 1007.2 - 1.8 - - - - - - -
20/03:30am 19.8 NW 5 8 1007.5 - 1.8 - - - - - - -
20/03:00am 20.1 WSW 4 7 1007.1 - 1.8 - - - - - - -
20/02:30am 20.9 NE 8 10 1006.7 - 1.8 - - - - - - -
20/02:00am 21.1 ENE 7 10 1007.4 - 1.8 - - - - - - -
20/01:30am 21.9 NNW 8 13 1007.8 - 1.8 - - - - - - -
20/01:00am 20.1 NNW 11 16 1009.1 - 1.8 - - - - - - -
20/12:30am 19.5 NNW 4 7 1008.7 - 1.6 - - - - - - -
20/12:00am 21.4 WNW 5 6 1009.5 - 0.0 - - - - - - -
 
Date/Time
CDT
Temp

°C
Wind Pressure Rain
since 9am
mm
Weather Cloud Vis
km
Sea
Height
m
Swell
Dir
 
Speed
knots
Gust
knots
hPa Trend Height
m
Period
s
Dir
19/11:30pm 22.1 NNW 10 13 1009.3 - 0.0 - - - - - - -
19/11:00pm 22.6 NW 5 7 1007.8 - 0.0 - - - - - - -
19/10:30pm 22.7 W 4 7 1007.7 - 0.0 - - - - - - -
19/10:00pm 22.9 WSW 2 4 1007.7 - 0.0 - - - - - - -
19/09:30pm 24.2 W 5 9 1007.4 - 0.0 - - - - - - -
19/09:00pm 24.5 NW 8 12 1007.2 - 0.0 - - - - - - -
19/08:30pm 26.1 NNW 7 9 1006.6 - 0.0 - - - - - - -
19/08:00pm 27.4 NNW 7 10 1006.2 - 0.0 - - - - - - -
19/07:30pm 29.0 NNW 7 10 1005.5 - 0.0 - - - - - - -
19/07:00pm 29.9 NW 8 13 1005.6 - 0.0 - - - - - - -
19/06:30pm 30.7 NNW 9 13 1005.7 - 0.0 - - - - - - -
19/06:00pm 31.5 NW 7 10 1006.2 - 0.0 - - - - - - -
19/05:30pm 32.2 NNW 7 9 1006.6 - 0.0 - - - - - - -
19/05:00pm 32.6 NNW 7 10 1007.1 - 0.0 - - - - - - -
19/04:30pm 31.5 N 5 7 1007.5 - 0.0 - - - - - - -
19/04:00pm 31.5 NNW 4 6 1008.0 - 0.0 - - - - - - -
19/03:30pm 32.7 NW 7 9 1008.3 - 0.0 - - - - - - -
19/03:00pm 33.9 NNW 8 11 1008.6 - 0.0 - - - - - - -
19/02:30pm 33.8 NW 7 9 1009.2 - 0.0 - - - - - - -
19/02:00pm 33.0 NNW 7 10 1010.1 - 0.0 - - - - - - -
19/01:30pm 33.3 NNW 8 11 1010.5 - 0.0 - - - - - - -
19/01:00pm 30.9 NNW 8 13 1011.3 - 0.0 - - - - - - -
19/12:30pm 30.0 NNW 9 12 1012.0 - 0.0 - - - - - - -
19/12:00pm 32.2 NNW 10 15 1012.3 - 0.0 - - - - - - -
19/11:30am 30.3 N 10 15 1012.8 - 0.0 - - - - - - -
19/11:00am 27.4 NE 11 15 1013.3 - 0.0 - - - - - - -
19/10:30am 25.7 NE 14 17 1013.7 - 0.0 - - - - - - -
19/10:00am 23.9 NE 14 18 1013.9 - 0.0 - - - - - - -
19/09:30am 21.7 NE 15 18 1014.1 - 0.0 - - - - - - -
19/09:00am 18.6 NE 14 17 1014.4 - 0.0 - - - - - - -
19/08:30am 16.9 NE 15 17 1014.5 - 0.0 - - - - - - -
19/08:00am 15.4 NNE 15 18 1014.4 - 0.0 - - - - - - -
19/07:30am 14.1 NNE 14 17 1014.6 - 0.0 - - - - - - -
19/07:00am 13.5 NE 15 18 1014.6 - 0.0 - - - - - - -
19/06:30am 13.0 NNE 13 16 1014.7 - 0.0 - - - - - - -
19/06:00am 12.5 NE 13 15 1014.6 - 0.0 - - - - - - -
19/05:30am 12.1 NE 13 15 1015.0 - 0.0 - - - - - - -
19/05:00am 12.3 NE 13 16 1014.9 - 0.0 - - - - - - -
19/04:30am 12.4 NNE 12 14 1015.6 - 0.0 - - - - - - -
19/04:00am 12.1 NE 12 17 1015.9 - 0.0 - - - - - - -
19/03:30am 13.2 NNE 13 16 1016.6 - 0.0 - - - - - - -
19/03:00am 13.8 NE 11 13 1016.8 - 0.0 - - - - - - -
19/02:30am 14.0 NE 11 14 1017.3 - 0.0 - - - - - - -
19/02:00am 13.5 NNE 11 13 1017.5 - 0.0 - - - - - - -
19/01:30am 13.6 NNE 10 13 1017.7 - 0.0 - - - - - - -
19/01:00am 14.3 NE 10 12 1018.2 - 0.0 - - - - - - -
19/12:30am 14.6 NE 9 11 1018.6 - 0.0 - - - - - - -
19/12:00am 14.8 NE 8 10 1019.0 - 0.0 - - - - - - -
 
Date/Time
CDT
Temp

°C
Wind Pressure Rain
since 9am
mm
Weather Cloud Vis
km
Sea
Height
m
Swell
Dir
 
Speed
knots
Gust
knots
hPa Trend Height
m
Period
s
Dir
18/11:30pm 14.9 NE 8 10 1019.4 - 0.0 - - - - - - -
18/11:00pm 15.5 NE 9 10 1019.9 - 0.0 - - - - - - -
18/10:30pm 15.9 NE 8 10 1020.2 - 0.0 - - - - - - -
18/10:00pm 16.2 NE 7 9 1020.3 - 0.0 - - - - - - -
18/09:30pm 15.3 ENE 4 5 1020.1 - 0.0 - - - - - - -
18/09:00pm 16.0 E 5 6 1019.9 - 0.0 - - - - - - -
18/08:30pm 17.6 SE 5 7 1019.8 - 0.0 - - - - - - -
18/08:00pm 18.9 S 5 7 1019.7 - 0.0 - - - - - - -
18/07:30pm 20.4 S 9 11 1019.4 - 0.0 - - - - - - -
18/07:00pm 21.2 S 9 11 1019.3 - 0.0 - - - - - - -
18/06:30pm 23.1 S 7 10 1019.0 - 0.0 - - - - - - -
18/06:00pm 21.4 S 7 10 1018.9 - 0.0 - - - - - - -
18/05:30pm 21.7 SSW 10 12 1019.1 - 0.0 - - - - - - -
18/05:00pm 22.1 SW 8 10 1019.4 - 0.0 - - - - - - -
18/04:30pm 21.7 SW 9 11 1019.5 - 0.0 - - - - - - -
18/04:00pm 22.1 SSW 7 10 1019.8 - 0.0 - - - - - - -
18/03:30pm 20.5 SW 10 12 1020.6 - 0.0 - - - - - - -
18/03:00pm 20.3 SW 9 11 1020.7 - 0.0 - - - - - - -
18/02:30pm 20.5 SW 8 10 1020.8 - 0.0 - - - - - - -
18/02:00pm 20.7 SW 8 11 1021.1 - 0.0 - - - - - - -
18/01:30pm 20.3 SW 7 9 1021.5 - 0.0 - - - - - - -
18/01:00pm 18.5 SW 8 9 1021.6 - 0.0 - - - - - - -
18/12:30pm 19.2 SW 6 8 1021.8 - 0.0 - - - - - - -
18/12:00pm 19.2 WSW 7 9 1022.2 - 0.0 - - - - - - -
18/11:30am 17.9 SW 6 8 1022.5 - 0.0 - - - - - - -
18/11:00am 18.7 WSW 7 9 1022.8 - 0.0 - - - - - - -
18/10:30am 18.8 SW 7 9 1022.7 - 0.0 - - - - - - -
18/10:00am 17.8 SE 4 7 1023.0 - 0.0 - - - - - - -
18/09:30am 17.2 E 4 8 1023.0 - 0.0 - - - - - - -
18/09:00am 16.3 ENE 7 12 1022.7 - 0.0 - - - - - - -
18/08:30am 14.9 ENE 5 7 1022.6 - 0.0 - - - - - - -
18/08:00am 13.4 ENE 5 6 1022.5 - 0.0 - - - - - - -
18/07:30am 11.7 ENE 4 6 1022.4 - 0.0 - - - - - - -

Other Formats:

Comma delimited format used in spreadsheet applications
http://www.bom.gov.au/fwo/IDS60701/IDS60701.94658.axf

JavaScript Object Notation format (JSON) in row-major order
http://www.bom.gov.au/fwo/IDS60701/IDS60701.94658.json